Mid Fortune — ZGCG8 — position and weather

sailwx.info

Track history (hours):
 
Tides and Currents Weather Stations Pressure Air Temp Water Temp Dewpoint Dewpoint Depression Visibility Wind Speed Wind Dir Waves Ship Positions

Mid Fortune

Last reported at 2017-May-11 21:40 UTC. Time now 2017-May-30 01:33 UTC.
Position N 01°56' E 102°18'.
Warning: this ship's position is 18 days out of date.

Length 147 m; draft 9.3 m.

Type: Ship. MMSI: 319182000.

Date/timePositionNaut miles runAvg speedWind from/ knotsBaromVisibWave heightAir tempDewpointWater temp
2017-May-11 21:40N 01°56' E 102°18'212.8
2017-May-11 21:30N 01°55' E 102°20'713.2
2017-May-11 21:01N 01°53' E 102°26'713.7
2017-May-11 20:31N 01°50' E 102°32'814.2
2017-May-11 19:59N 01°47' E 102°39'5513.0
2017-May-11 15:45N 01°15' E 103°24'311.6
2017-May-11 15:28N 01°14' E 103°27'511.7
2017-May-11 15:00N 01°13' E 103°32'611.3
2017-May-11 14:31N 01°12' E 103°37'2 2.3
2017-May-11 13:28N 01°14' E 103°39'0 0.1
2017-May-11 12:55N 01°14' E 103°39'0 0.0
2017-May-11 12:28N 01°14' E 103°39'0 0.0
2017-May-11 11:58N 01°14' E 103°39'0 0.0
2017-May-11 11:28N 01°14' E 103°39'0 0.0
2017-May-11 10:58N 01°14' E 103°39'0 0.0
2017-May-11 10:25N 01°14' E 103°39'0 0.0
2017-May-11 09:55N 01°14' E 103°39'0 0.1
2017-May-11 09:13N 01°14' E 103°39'0 0.0
2017-May-11 08:43N 01°14' E 103°39'0 0.0
2017-May-11 08:22N 01°14' E 103°39'0 0.0
2017-May-11 07:55N 01°14' E 103°39'0 0.1
2017-May-11 07:10N 01°14' E 103°39'0 0.0
2017-May-11 06:52N 01°14' E 103°39'0 0.0
2017-May-11 06:28N 01°14' E 103°39'0 0.0
2017-May-11 05:58N 01°14' E 103°39'0 0.0
2017-May-11 05:28N 01°14' E 103°39'0 0.0
2017-May-11 04:55N 01°14' E 103°39'0 0.0
2017-May-11 04:28N 01°14' E 103°39'0 0.0
2017-May-11 03:58N 01°14' E 103°39'0 0.0
2017-May-11 03:28N 01°14' E 103°39'0 0.0
2017-May-11 02:58N 01°14' E 103°39'0 0.0
2017-May-11 02:28N 01°14' E 103°39'0 0.0
2017-May-11 01:52N 01°14' E 103°39'0 0.3
2017-May-11 01:30N 01°14' E 103°39'2 4.5
2017-May-11 01:00N 01°12' E 103°39'2 4.8
2017-May-11 00:30N 01°10' E 103°41'3 6.9
2017-May-11 00:00N 01°09' E 103°44'4 7.3
2017-May-10 23:30N 01°10' E 103°48'4 8.3
2017-May-10 22:59N 01°12' E 103°52'4 8.2
2017-May-10 22:30N 01°14' E 103°55'5 9.9
2017-May-10 21:57N 01°15' E 104°00'  
2017-May-05 14:28N 22°48' E 119°56'9 0.4
2017-May-04 16:50N 22°48' E 120°06'512.4
2017-May-04 16:28N 22°43' E 120°07'611.5
2017-May-04 15:58N 22°39' E 120°11'510.0
2017-May-04 15:29N 22°37' E 120°16'3 5.6
2017-May-04 14:59N 22°35' E 120°18'0 0.1
2017-May-04 13:17N 22°35' E 120°18'0 0.0
2017-May-04 12:57N 22°35' E 120°18'0 0.0
2017-May-04 12:30N 22°35' E 120°18'0 0.0
2017-May-04 11:56N 22°35' E 120°18'0 0.0
2017-May-04 11:29N 22°35' E 120°18'0 0.0
2017-May-04 11:00N 22°35' E 120°18'0 0.0
2017-May-04 10:12N 22°35' E 120°18'0 0.0
2017-May-04 09:52N 22°35' E 120°18'0 0.0
2017-May-04 09:30N 22°35' E 120°18'0 0.0
2017-May-04 09:00N 22°35' E 120°18'0 0.0
2017-May-04 08:26N 22°35' E 120°18'0 0.0
2017-May-04 07:58N 22°35' E 120°18'0 0.0
2017-May-04 07:05N 22°35' E 120°18'0 0.0
2017-May-04 07:00N 22°35' E 120°18'0 0.0
2017-May-04 06:30N 22°35' E 120°18'0 0.0
2017-May-04 06:00N 22°35' E 120°18'0 0.0
2017-May-04 05:27N 22°35' E 120°18'0 0.0
2017-May-04 04:58N 22°35' E 120°18'0 0.0
2017-May-04 04:30N 22°35' E 120°18'0 0.0
2017-May-04 03:57N 22°35' E 120°18'0 0.0
2017-May-04 03:25N 22°35' E 120°18'0 0.0
2017-May-04 02:56N 22°35' E 120°18'0 0.0
2017-May-04 02:30N 22°35' E 120°18'0 0.0
2017-May-04 02:00N 22°35' E 120°18'0 0.0
2017-May-04 01:16N 22°35' E 120°18'0 0.0
2017-May-04 01:00N 22°35' E 120°18'0 0.0
2017-May-04 00:30N 22°35' E 120°18'0 0.0
2017-May-03 16:03N 22°35' E 120°18'1 5.5
2017-May-03 15:55N 22°36' E 120°17'4 8.7
2017-May-03 15:30N 22°37' E 120°14'3 5.2
2017-May-03 15:00N 22°37' E 120°11'1 1.6
2017-May-03 14:30N 22°37' E 120°11'2 2.1
2017-May-03 13:30N 22°39' E 120°09'3 5.7
2017-May-03 13:00N 22°40' E 120°07'2 3.1
2017-May-03 12:30N 22°41' E 120°05'3 6.9
2017-May-03 12:00N 22°44' E 120°03'713.6
2017-May-03 11:30N 22°50' E 119°60'  
Track history (hours):
 
Tides and Currents Weather Stations Pressure Air Temp Water Temp Dewpoint Dewpoint Depression Visibility Wind Speed Wind Dir Waves Ship Positions

Mid Fortune

Last reported at 2017-May-11 21:40 UTC. Time now 2017-May-30 01:33 UTC.
Position N 01°56' E 102°18'.
Warning: this ship's position is 18 days out of date.

Length 147 m; draft 9.3 m.

Type: Ship. MMSI: 319182000.

Date/timePositionNaut miles runAvg speedWind from/ knotsBaromVisibWave heightAir tempDewpointWater temp
2017-May-11 21:40N 01°56' E 102°18'212.8
2017-May-11 21:30N 01°55' E 102°20'713.2
2017-May-11 21:01N 01°53' E 102°26'713.7
2017-May-11 20:31N 01°50' E 102°32'814.2
2017-May-11 19:59N 01°47' E 102°39'5513.0
2017-May-11 15:45N 01°15' E 103°24'311.6
2017-May-11 15:28N 01°14' E 103°27'511.7
2017-May-11 15:00N 01°13' E 103°32'611.3
2017-May-11 14:31N 01°12' E 103°37'2 2.3
2017-May-11 13:28N 01°14' E 103°39'0 0.1
2017-May-11 12:55N 01°14' E 103°39'0 0.0
2017-May-11 12:28N 01°14' E 103°39'0 0.0
2017-May-11 11:58N 01°14' E 103°39'0 0.0
2017-May-11 11:28N 01°14' E 103°39'0 0.0
2017-May-11 10:58N 01°14' E 103°39'0 0.0
2017-May-11 10:25N 01°14' E 103°39'0 0.0
2017-May-11 09:55N 01°14' E 103°39'0 0.1
2017-May-11 09:13N 01°14' E 103°39'0 0.0
2017-May-11 08:43N 01°14' E 103°39'0 0.0
2017-May-11 08:22N 01°14' E 103°39'0 0.0
2017-May-11 07:55N 01°14' E 103°39'0 0.1
2017-May-11 07:10N 01°14' E 103°39'0 0.0
2017-May-11 06:52N 01°14' E 103°39'0 0.0
2017-May-11 06:28N 01°14' E 103°39'0 0.0
2017-May-11 05:58N 01°14' E 103°39'0 0.0
2017-May-11 05:28N 01°14' E 103°39'0 0.0
2017-May-11 04:55N 01°14' E 103°39'0 0.0
2017-May-11 04:28N 01°14' E 103°39'0 0.0
2017-May-11 03:58N 01°14' E 103°39'0 0.0
2017-May-11 03:28N 01°14' E 103°39'0 0.0
2017-May-11 02:58N 01°14' E 103°39'0 0.0
2017-May-11 02:28N 01°14' E 103°39'0 0.0
2017-May-11 01:52N 01°14' E 103°39'0 0.3
2017-May-11 01:30N 01°14' E 103°39'2 4.5
2017-May-11 01:00N 01°12' E 103°39'2 4.8
2017-May-11 00:30N 01°10' E 103°41'3 6.9
2017-May-11 00:00N 01°09' E 103°44'4 7.3
2017-May-10 23:30N 01°10' E 103°48'4 8.3
2017-May-10 22:59N 01°12' E 103°52'4 8.2
2017-May-10 22:30N 01°14' E 103°55'5 9.9
2017-May-10 21:57N 01°15' E 104°00'  
2017-May-05 14:28N 22°48' E 119°56'9 0.4
2017-May-04 16:50N 22°48' E 120°06'512.4
2017-May-04 16:28N 22°43' E 120°07'611.5
2017-May-04 15:58N 22°39' E 120°11'510.0
2017-May-04 15:29N 22°37' E 120°16'3 5.6
2017-May-04 14:59N 22°35' E 120°18'0 0.1
2017-May-04 13:17N 22°35' E 120°18'0 0.0
2017-May-04 12:57N 22°35' E 120°18'0 0.0
2017-May-04 12:30N 22°35' E 120°18'0 0.0
2017-May-04 11:56N 22°35' E 120°18'0 0.0
2017-May-04 11:29N 22°35' E 120°18'0 0.0
2017-May-04 11:00N 22°35' E 120°18'0 0.0
2017-May-04 10:12N 22°35' E 120°18'0 0.0
2017-May-04 09:52N 22°35' E 120°18'0 0.0
2017-May-04 09:30N 22°35' E 120°18'0 0.0
2017-May-04 09:00N 22°35' E 120°18'0 0.0
2017-May-04 08:26N 22°35' E 120°18'0 0.0
2017-May-04 07:58N 22°35' E 120°18'0 0.0
2017-May-04 07:05N 22°35' E 120°18'0 0.0
2017-May-04 07:00N 22°35' E 120°18'0 0.0
2017-May-04 06:30N 22°35' E 120°18'0 0.0
2017-May-04 06:00N 22°35' E 120°18'0 0.0
2017-May-04 05:27N 22°35' E 120°18'0 0.0
2017-May-04 04:58N 22°35' E 120°18'0 0.0
2017-May-04 04:30N 22°35' E 120°18'0 0.0
2017-May-04 03:57N 22°35' E 120°18'0 0.0
2017-May-04 03:25N 22°35' E 120°18'0 0.0
2017-May-04 02:56N 22°35' E 120°18'0 0.0
2017-May-04 02:30N 22°35' E 120°18'0 0.0
2017-May-04 02:00N 22°35' E 120°18'0 0.0
2017-May-04 01:16N 22°35' E 120°18'0 0.0
2017-May-04 01:00N 22°35' E 120°18'0 0.0
2017-May-04 00:30N 22°35' E 120°18'0 0.0
2017-May-03 16:03N 22°35' E 120°18'1 5.5
2017-May-03 15:55N 22°36' E 120°17'4 8.7
2017-May-03 15:30N 22°37' E 120°14'3 5.2
2017-May-03 15:00N 22°37' E 120°11'1 1.6
2017-May-03 14:30N 22°37' E 120°11'2 2.1
2017-May-03 13:30N 22°39' E 120°09'3 5.7
2017-May-03 13:00N 22°40' E 120°07'2 3.1
2017-May-03 12:30N 22°41' E 120°05'3 6.9
2017-May-03 12:00N 22°44' E 120°03'713.6
2017-May-03 11:30N 22°50' E 119°60'  

Dump ship's entire track history